createdAt,value
2018-05-18T00:01:03.903Z,0
2018-05-18T00:02:13.936Z,0
2018-05-18T00:03:23.392Z,0
2018-05-18T00:04:33.360Z,0
2018-05-18T00:05:43.080Z,0
2018-05-18T00:06:52.789Z,0
2018-05-18T00:08:02.750Z,0
2018-05-18T00:09:12.730Z,0
2018-05-18T00:10:22.433Z,0
2018-05-18T00:11:32.397Z,0
2018-05-18T00:12:42.446Z,0
2018-05-18T00:13:52.409Z,0
2018-05-18T00:15:02.394Z,0
2018-05-18T00:16:12.121Z,0
2018-05-18T00:17:21.846Z,0
2018-05-18T00:18:31.564Z,0
2018-05-18T00:19:41.278Z,0
2018-05-18T00:20:51.237Z,0
2018-05-18T00:22:01.208Z,0
2018-05-18T00:23:10.932Z,0
2018-05-18T00:24:20.642Z,0
2018-05-18T00:25:30.612Z,0
2018-05-18T00:26:40.078Z,0
2018-05-18T00:27:50.040Z,0
2018-05-18T00:29:00.097Z,0
2018-05-18T00:30:10.080Z,0
2018-05-18T00:31:20.149Z,0
2018-05-18T00:32:30.121Z,0
2018-05-18T00:33:39.847Z,0
2018-05-18T00:34:49.573Z,0
2018-05-18T00:35:59.283Z,0
2018-05-18T00:37:09.247Z,0
2018-05-18T00:38:19.295Z,0
2018-05-18T00:39:29.012Z,0
2018-05-18T00:40:39.005Z,0
2018-05-18T00:41:48.972Z,0
2018-05-18T00:42:58.938Z,0
2018-05-18T00:44:08.903Z,0
2018-05-18T00:45:18.628Z,0
2018-05-18T00:46:28.606Z,0
2018-05-18T00:47:38.576Z,0
2018-05-18T00:48:47.774Z,0
2018-05-18T00:49:57.491Z,0
2018-05-18T00:51:07.472Z,0
2018-05-18T00:52:17.437Z,0
2018-05-18T00:53:27.467Z,0
2018-05-18T00:54:37.177Z,0
2018-05-18T00:55:46.884Z,0
2018-05-18T00:56:56.859Z,0
2018-05-18T00:58:06.840Z,0
2018-05-18T00:59:16.540Z,0
2018-05-18T01:00:26.250Z,0
2018-05-18T01:01:35.958Z,0
2018-05-18T01:02:45.655Z,0
2018-05-18T01:03:55.617Z,0
2018-05-18T01:05:05.074Z,0
2018-05-18T01:06:15.041Z,0
2018-05-18T01:07:25.009Z,0
2018-05-18T01:08:34.985Z,0
2018-05-18T01:09:44.957Z,0
2018-05-18T01:10:54.987Z,0
2018-05-18T01:12:04.714Z,0
2018-05-18T01:13:14.689Z,0
2018-05-18T01:14:24.672Z,0
2018-05-18T01:15:34.116Z,0
2018-05-18T01:16:44.083Z,0
2018-05-18T01:17:54.053Z,0
2018-05-18T01:19:03.762Z,0
2018-05-18T01:20:13.207Z,0
2018-05-18T01:21:22.923Z,0
2018-05-18T01:22:32.891Z,0
2018-05-18T01:23:42.866Z,0
2018-05-18T01:24:52.832Z,0
2018-05-18T01:26:02.550Z,0
2018-05-18T01:27:12.519Z,0
2018-05-18T01:28:21.972Z,0
2018-05-18T01:29:31.947Z,0
2018-05-18T01:30:41.929Z,0
2018-05-18T01:31:51.632Z,0
2018-05-18T01:33:01.345Z,0
2018-05-18T01:34:11.321Z,0
2018-05-18T01:35:21.288Z,0
2018-05-18T01:36:31.262Z,0
2018-05-18T01:37:40.978Z,0
2018-05-18T01:38:50.970Z,0
2018-05-18T01:40:00.427Z,0
2018-05-18T01:41:10.392Z,0
2018-05-18T01:42:20.355Z,0
2018-05-18T01:43:30.065Z,0
2018-05-18T01:44:40.055Z,0
2018-05-18T01:45:49.511Z,0
2018-05-18T01:46:59.239Z,0
2018-05-18T01:48:09.213Z,0
2018-05-18T01:49:19.185Z,0
2018-05-18T01:50:29.157Z,0
2018-05-18T01:51:39.118Z,0
2018-05-18T01:52:49.484Z,0
2018-05-18T01:53:59.446Z,0
2018-05-18T01:55:09.618Z,0
2018-05-18T01:56:19.598Z,0
2018-05-18T01:57:29.313Z,0
2018-05-18T01:58:39.274Z,0
2018-05-18T01:59:49.258Z,0
2018-05-18T02:00:59.214Z,0
2018-05-18T02:02:08.669Z,0
2018-05-18T02:03:18.635Z,0
2018-05-18T02:04:28.342Z,0
2018-05-18T02:05:38.320Z,0
2018-05-18T02:06:48.285Z,0
2018-05-18T02:07:58.247Z,0
2018-05-18T02:09:08.220Z,0
2018-05-18T02:10:17.926Z,0
2018-05-18T02:11:27.751Z,0
2018-05-18T02:12:37.717Z,0
2018-05-18T02:13:47.190Z,0
2018-05-18T02:14:57.166Z,0
2018-05-18T02:16:06.875Z,0
2018-05-18T02:17:16.841Z,0
2018-05-18T02:18:26.558Z,0
2018-05-18T02:19:36.004Z,0
2018-05-18T02:20:45.187Z,0
2018-05-18T02:21:55.156Z,0
2018-05-18T02:23:05.135Z,0
2018-05-18T02:24:15.162Z,4
2018-05-18T02:25:24.885Z,4
2018-05-18T02:26:34.855Z,4
2018-05-18T02:27:44.822Z,0
2018-05-18T02:28:54.801Z,4
2018-05-18T02:30:04.781Z,4
2018-05-18T02:31:14.767Z,4
2018-05-18T02:32:24.485Z,8
2018-05-18T02:33:34.454Z,8
2018-05-18T02:34:44.419Z,8
2018-05-18T02:35:54.135Z,12
2018-05-18T02:37:03.852Z,12
2018-05-18T02:38:13.567Z,12
2018-05-18T02:39:23.562Z,16
2018-05-18T02:40:33.272Z,20
2018-05-18T02:41:43.269Z,24
2018-05-18T02:42:53.039Z,28
2018-05-18T02:44:02.741Z,32
2018-05-18T02:45:12.728Z,36
2018-05-18T02:46:22.720Z,40
2018-05-18T02:47:32.699Z,52
2018-05-18T02:48:42.445Z,56
2018-05-18T02:49:52.514Z,68
2018-05-18T02:51:02.487Z,76
2018-05-18T02:52:12.457Z,92
2018-05-18T02:53:22.476Z,100
2018-05-18T02:54:32.447Z,116
2018-05-18T02:55:42.437Z,132
2018-05-18T02:56:52.428Z,148
2018-05-18T02:58:02.389Z,168
2018-05-18T02:59:12.425Z,192
2018-05-18T03:00:22.422Z,212
2018-05-18T03:01:32.133Z,236
2018-05-18T03:02:42.112Z,264
2018-05-18T03:03:52.073Z,288
2018-05-18T03:05:02.064Z,320
2018-05-18T03:06:12.029Z,356
2018-05-18T03:07:22.000Z,392
2018-05-18T03:08:31.457Z,424
2018-05-18T03:09:41.251Z,460
2018-05-18T03:10:51.207Z,500
2018-05-18T03:12:00.920Z,548
2018-05-18T03:13:10.630Z,596
2018-05-18T03:14:20.334Z,640
2018-05-18T03:15:29.783Z,688
2018-05-18T03:16:39.500Z,732
2018-05-18T03:17:49.466Z,780
2018-05-18T03:18:59.442Z,828
2018-05-18T03:20:09.439Z,880
2018-05-18T03:21:19.151Z,932
2018-05-18T03:22:28.604Z,992
2018-05-18T03:23:38.327Z,1044
2018-05-18T03:24:48.294Z,1104
2018-05-18T03:25:58.003Z,1164
2018-05-18T03:27:07.979Z,1224
2018-05-18T03:28:17.939Z,1288
2018-05-18T03:29:27.912Z,1352
2018-05-18T03:30:37.875Z,1412
2018-05-18T03:31:47.860Z,1476
2018-05-18T03:32:57.841Z,1536
2018-05-18T03:34:07.814Z,1604
2018-05-18T03:35:17.788Z,1668
2018-05-18T03:36:27.749Z,1728
2018-05-18T03:37:37.457Z,1792
2018-05-18T03:38:47.423Z,1852
2018-05-18T03:39:57.393Z,1904
2018-05-18T03:41:07.362Z,1964
2018-05-18T03:42:17.069Z,2020
2018-05-18T03:43:27.027Z,2076
2018-05-18T03:44:36.997Z,2136
2018-05-18T03:45:46.951Z,2192
2018-05-18T03:46:56.649Z,2240
2018-05-18T03:48:06.625Z,2288
2018-05-18T03:49:16.337Z,2332
2018-05-18T03:50:26.301Z,2380
2018-05-18T03:51:36.092Z,2424
2018-05-18T03:52:46.058Z,2468
2018-05-18T03:53:55.773Z,2520
2018-05-18T03:55:05.736Z,2576
2018-05-18T03:56:15.712Z,2636
2018-05-18T03:57:25.685Z,2696
2018-05-18T03:58:35.658Z,2756
2018-05-18T03:59:45.623Z,2816
2018-05-18T04:00:55.604Z,2876
2018-05-18T04:02:05.577Z,2940
2018-05-18T04:03:15.536Z,3008
2018-05-18T04:04:25.263Z,3072
2018-05-18T04:05:35.245Z,3140
2018-05-18T04:06:44.692Z,3200
2018-05-18T04:07:54.658Z,3260
2018-05-18T04:09:04.706Z,3320
2018-05-18T04:10:14.729Z,3388
2018-05-18T04:11:24.803Z,3456
2018-05-18T04:12:34.857Z,3532
2018-05-18T04:13:44.573Z,3624
2018-05-18T04:14:54.548Z,3732
2018-05-18T04:16:04.263Z,3840
2018-05-18T04:17:14.234Z,3960
2018-05-18T04:18:23.970Z,4096
2018-05-18T04:19:33.934Z,4236
2018-05-18T04:20:43.910Z,4392
2018-05-18T04:21:53.625Z,4544
2018-05-18T04:23:03.335Z,4724
2018-05-18T04:24:13.300Z,4872
2018-05-18T04:25:23.032Z,5000
2018-05-18T04:26:33.089Z,5148
2018-05-18T04:27:42.795Z,5244
2018-05-18T04:28:52.777Z,5336
2018-05-18T04:30:02.916Z,5452
2018-05-18T04:31:12.935Z,5568
2018-05-18T04:32:22.381Z,5644
2018-05-18T04:33:32.346Z,5684
2018-05-18T04:34:42.066Z,5756
2018-05-18T04:35:51.539Z,5888
2018-05-18T04:37:01.529Z,5984
2018-05-18T04:38:11.507Z,6096
2018-05-18T04:39:21.487Z,6184
2018-05-18T04:40:31.209Z,6272
2018-05-18T04:41:41.171Z,6340
2018-05-18T04:42:50.621Z,6452
2018-05-18T04:44:00.578Z,6628
2018-05-18T04:45:10.538Z,6792
2018-05-18T04:46:20.513Z,6728
2018-05-18T04:47:30.580Z,6600
2018-05-18T04:48:40.033Z,6672
2018-05-18T04:49:50.006Z,6776
2018-05-18T04:51:00.211Z,6664
2018-05-18T04:52:10.362Z,6716
2018-05-18T04:53:20.328Z,6508
2018-05-18T04:54:30.316Z,6440
2018-05-18T04:55:40.285Z,6368
2018-05-18T04:56:49.988Z,6420
2018-05-18T04:57:59.692Z,6516
2018-05-18T04:59:09.677Z,6632
2018-05-18T05:00:19.735Z,6768
2018-05-18T05:01:29.454Z,7004
2018-05-18T05:02:39.443Z,7220
2018-05-18T05:03:49.145Z,7544
2018-05-18T05:04:58.853Z,7996
2018-05-18T05:06:08.842Z,8696
2018-05-18T05:07:18.564Z,9028
2018-05-18T05:08:28.541Z,9428
2018-05-18T05:09:37.991Z,9808
2018-05-18T05:10:47.969Z,9820
2018-05-18T05:11:57.682Z,9924
2018-05-18T05:13:07.656Z,10284
2018-05-18T05:14:17.618Z,10528
2018-05-18T05:15:27.593Z,11120
2018-05-18T05:16:37.569Z,11388
2018-05-18T05:17:47.097Z,11608
2018-05-18T05:18:56.894Z,11824
2018-05-18T05:20:06.875Z,11820
2018-05-18T05:21:16.861Z,11768
2018-05-18T05:22:26.841Z,11316
2018-05-18T05:23:36.989Z,11036
2018-05-18T05:24:46.373Z,10772
2018-05-18T05:25:55.829Z,10560
2018-05-18T05:27:05.531Z,11252
2018-05-18T05:28:15.251Z,11368
2018-05-18T05:29:25.248Z,11644
2018-05-18T05:30:35.445Z,10536
2018-05-18T05:31:45.584Z,9864
2018-05-18T05:32:55.302Z,9852
2018-05-18T05:34:05.031Z,10664
2018-05-18T05:35:15.088Z,10640
2018-05-18T05:36:25.078Z,11720
2018-05-18T05:37:34.800Z,12240
2018-05-18T05:38:44.781Z,12108
2018-05-18T05:39:54.507Z,13048
2018-05-18T05:41:04.480Z,13404
2018-05-18T05:42:14.185Z,13468
2018-05-18T05:43:24.168Z,14232
2018-05-18T05:44:33.636Z,14056
2018-05-18T05:45:43.657Z,14648
2018-05-18T05:46:53.851Z,14640
2018-05-18T05:48:03.667Z,14452
2018-05-18T05:49:13.397Z,14756
2018-05-18T05:50:23.376Z,14880
2018-05-18T05:51:33.352Z,14408
2018-05-18T05:52:43.145Z,14472
2018-05-18T05:53:53.226Z,14288
2018-05-18T05:55:02.686Z,14588
2018-05-18T05:56:12.439Z,13972
2018-05-18T05:57:22.417Z,14436
2018-05-18T05:58:32.226Z,13932
2018-05-18T05:59:42.348Z,15076
2018-05-18T06:00:52.326Z,15004
2018-05-18T06:02:02.311Z,14752
2018-05-18T06:03:12.294Z,14644
2018-05-18T06:04:22.278Z,15300
2018-05-18T06:05:32.319Z,15108
2018-05-18T06:06:41.771Z,14600
2018-05-18T06:07:51.225Z,15328
2018-05-18T06:09:01.219Z,14276
2018-05-18T06:10:10.709Z,14268
2018-05-18T06:11:20.172Z,14368
2018-05-18T06:12:29.684Z,14228
2018-05-18T06:13:39.648Z,14864
2018-05-18T06:14:49.612Z,14400
2018-05-18T06:15:59.610Z,14256
2018-05-18T06:17:09.609Z,14176
2018-05-18T06:18:19.319Z,14588
2018-05-18T06:19:29.388Z,15380
2018-05-18T06:20:39.446Z,14840
2018-05-18T06:21:49.475Z,15148
2018-05-18T06:22:59.569Z,14992
2018-05-18T06:24:09.311Z,15196
2018-05-18T06:25:19.372Z,15140
2018-05-18T06:26:29.362Z,15240
2018-05-18T06:27:39.379Z,15224
2018-05-18T06:28:49.420Z,15592
2018-05-18T06:29:59.526Z,15752
2018-05-18T06:31:09.533Z,15728
2018-05-18T06:32:19.524Z,16272
2018-05-18T06:33:29.240Z,16520
2018-05-18T06:34:39.192Z,16812
2018-05-18T06:35:49.021Z,16708
2018-05-18T06:36:59.018Z,16060
2018-05-18T06:38:09.008Z,16880
2018-05-18T06:39:18.725Z,16956
2018-05-18T06:40:28.703Z,17128
2018-05-18T06:41:38.442Z,18784
2018-05-18T06:42:48.470Z,18304
2018-05-18T06:43:57.955Z,18432
2018-05-18T06:45:08.025Z,19616
2018-05-18T06:46:18.086Z,20672
2018-05-18T06:47:28.101Z,20224
2018-05-18T06:48:37.844Z,20416
2018-05-18T06:49:47.559Z,21600
2018-05-18T06:50:57.546Z,20416
2018-05-18T06:52:07.804Z,21568
2018-05-18T06:53:17.544Z,21280
2018-05-18T06:54:27.645Z,21728
2018-05-18T06:55:37.145Z,20800
2018-05-18T06:56:47.146Z,21504
2018-05-18T06:57:57.157Z,22176
2018-05-18T06:59:06.613Z,20704
2018-05-18T07:00:16.596Z,22560
2018-05-18T07:01:26.584Z,21440
2018-05-18T07:02:36.582Z,20736
2018-05-18T07:03:46.634Z,22144
2018-05-18T07:04:56.655Z,22784
2018-05-18T07:06:06.149Z,22560
2018-05-18T07:07:16.153Z,22656
2018-05-18T07:08:26.225Z,24608
2018-05-18T07:09:36.233Z,24640
2018-05-18T07:10:46.453Z,24480
2018-05-18T07:11:56.466Z,24192
2018-05-18T07:13:06.469Z,25184
2018-05-18T07:14:16.489Z,25728
2018-05-18T07:15:26.499Z,25088
2018-05-18T07:16:36.679Z,26400
2018-05-18T07:17:46.518Z,25440
2018-05-18T07:18:56.532Z,26208
2018-05-18T07:20:06.809Z,26400
2018-05-18T07:21:16.817Z,26144
2018-05-18T07:22:26.292Z,27232
2018-05-18T07:23:36.066Z,25632
2018-05-18T07:24:46.064Z,26272
2018-05-18T07:25:56.084Z,27776
2018-05-18T07:27:05.555Z,28032
2018-05-18T07:28:15.283Z,27936
2018-05-18T07:29:25.024Z,28896
2018-05-18T07:30:35.017Z,29248
2018-05-18T07:31:45.038Z,29888
2018-05-18T07:32:55.010Z,30048
2018-05-18T07:34:04.728Z,30976
2018-05-18T07:35:14.449Z,30848
2018-05-18T07:36:24.808Z,32128
2018-05-18T07:37:34.782Z,31328
2018-05-18T07:38:44.816Z,31200
2018-05-18T07:39:54.837Z,32608
2018-05-18T07:41:04.814Z,31232
2018-05-18T07:42:15.173Z,33120
2018-05-18T07:43:25.223Z,33088
2018-05-18T07:44:35.061Z,33120
2018-05-18T07:45:45.330Z,32608
2018-05-18T07:46:55.106Z,31872
2018-05-18T07:48:04.695Z,32224
2018-05-18T07:49:14.687Z,33440
2018-05-18T07:50:24.446Z,32416
2018-05-18T07:51:34.449Z,32640
2018-05-18T07:52:44.455Z,32512
2018-05-18T07:53:54.506Z,32640
2018-05-18T07:55:04.520Z,32928
2018-05-18T07:56:14.009Z,33632
2018-05-18T07:57:23.745Z,35168
2018-05-18T07:58:33.342Z,35168
2018-05-18T07:59:43.557Z,34976
2018-05-18T08:00:53.292Z,32576
2018-05-18T08:02:03.290Z,31872
2018-05-18T08:03:13.335Z,30112
2018-05-18T08:04:23.387Z,31872
2018-05-18T08:05:33.141Z,33696
2018-05-18T08:06:42.892Z,32608
2018-05-18T08:07:53.145Z,34400
2018-05-18T08:09:03.516Z,32480
2018-05-18T08:10:13.078Z,32960
2018-05-18T08:11:23.084Z,33728
2018-05-18T08:12:33.109Z,34016
2018-05-18T08:13:42.938Z,34432
2018-05-18T08:14:52.934Z,33664
2018-05-18T08:16:02.957Z,32832
2018-05-18T08:17:13.057Z,33056
2018-05-18T08:18:23.019Z,31488
2018-05-18T08:19:33.033Z,30048
2018-05-18T08:20:42.766Z,31456
2018-05-18T08:21:52.545Z,34208
2018-05-18T08:23:02.534Z,35936
2018-05-18T08:24:12.551Z,37472
2018-05-18T08:25:22.302Z,34496
2018-05-18T08:26:32.057Z,39776
2018-05-18T08:27:41.989Z,41760
2018-05-18T08:28:51.975Z,37184
2018-05-18T08:30:02.033Z,38592
2018-05-18T08:31:12.012Z,39872
2018-05-18T08:32:22.014Z,40864
2018-05-18T08:33:32.048Z,41664
2018-05-18T08:34:42.064Z,51488
2018-05-18T08:35:52.126Z,40960
2018-05-18T08:37:02.140Z,41760
2018-05-18T08:38:12.159Z,44064
2018-05-18T08:39:21.947Z,40832
2018-05-18T08:40:31.939Z,36416
2018-05-18T08:41:41.929Z,34752
2018-05-18T08:42:51.681Z,34336
2018-05-18T08:44:01.753Z,34880
2018-05-18T08:45:11.780Z,37888
2018-05-18T08:46:21.269Z,34432
2018-05-18T08:47:31.299Z,35360
2018-05-18T08:48:41.294Z,40864
2018-05-18T08:49:51.059Z,36160
2018-05-18T08:51:00.810Z,31968
2018-05-18T08:52:10.812Z,32480
2018-05-18T08:53:20.834Z,33216
2018-05-18T08:54:30.856Z,36352
2018-05-18T08:55:41.119Z,39904
2018-05-18T08:56:51.115Z,38240
2018-05-18T08:58:00.594Z,37504
2018-05-18T08:59:10.350Z,36192
2018-05-18T09:00:20.089Z,39872
2018-05-18T09:01:30.299Z,42752
2018-05-18T09:02:40.337Z,41664
2018-05-18T09:03:50.341Z,42496
2018-05-18T09:04:59.877Z,40128
2018-05-18T09:06:09.991Z,40928
2018-05-18T09:07:19.994Z,41344
2018-05-18T09:08:30.025Z,38592
2018-05-18T09:09:40.242Z,39328
2018-05-18T09:10:50.290Z,40960
2018-05-18T09:12:00.323Z,47616
2018-05-18T09:13:10.059Z,49792
2018-05-18T09:14:20.059Z,51040
2018-05-18T09:15:30.083Z,46944
2018-05-18T09:16:39.323Z,46560
2018-05-18T09:17:49.133Z,41568
2018-05-18T09:18:58.918Z,39840
2018-05-18T09:20:08.951Z,36032
2018-05-18T09:21:19.018Z,33728
2018-05-18T09:22:28.780Z,34880
2018-05-18T09:23:38.791Z,35616
2018-05-18T09:24:48.779Z,33600
2018-05-18T09:25:58.548Z,32032
2018-05-18T09:27:08.274Z,31360
2018-05-18T09:28:18.276Z,29632
2018-05-18T09:29:28.250Z,31104
2018-05-18T09:30:37.975Z,33376
2018-05-18T09:31:48.001Z,34976
2018-05-18T09:32:58.012Z,33984
2018-05-18T09:34:08.307Z,35456
2018-05-18T09:35:18.434Z,35232
2018-05-18T09:36:28.163Z,30912
2018-05-18T09:37:38.146Z,30560
2018-05-18T09:38:48.155Z,30880
2018-05-18T09:39:58.504Z,31808
2018-05-18T09:41:08.511Z,34464
2018-05-18T09:42:18.252Z,39424
2018-05-18T09:43:27.986Z,43040
2018-05-18T09:44:37.997Z,42368
2018-05-18T09:45:47.718Z,37248
2018-05-18T09:46:57.446Z,35456
2018-05-18T09:48:07.427Z,34336
2018-05-18T09:49:17.416Z,34592
2018-05-18T09:50:27.165Z,34912
2018-05-18T09:51:36.902Z,32640
2018-05-18T09:52:46.904Z,31104
2018-05-18T09:53:57.004Z,29792
2018-05-18T09:55:07.401Z,29088
2018-05-18T09:56:18.118Z,29376
2018-05-18T09:57:28.221Z,29824
2018-05-18T09:58:38.498Z,30752
2018-05-18T09:59:48.507Z,32960
2018-05-18T10:00:58.499Z,35264
2018-05-18T10:02:08.569Z,37088
2018-05-18T10:03:18.580Z,36864
2018-05-18T10:04:28.315Z,36704
2018-05-18T10:05:37.782Z,37536
2018-05-18T10:06:47.561Z,39808
2018-05-18T10:07:57.569Z,43168
2018-05-18T10:09:07.570Z,43520
2018-05-18T10:10:17.554Z,47264
2018-05-18T10:11:27.536Z,52224
2018-05-18T10:12:37.580Z,50400
2018-05-18T10:13:47.582Z,46752
2018-05-18T10:14:57.581Z,45184
2018-05-18T10:16:07.559Z,43584
2018-05-18T10:17:17.563Z,45344
2018-05-18T10:18:27.644Z,45696
2018-05-18T10:19:37.667Z,49184
2018-05-18T10:20:47.139Z,59616
2018-05-18T10:21:56.365Z,52608
2018-05-18T10:23:06.347Z,48832
2018-05-18T10:24:16.316Z,47456
2018-05-18T10:25:25.799Z,48192
2018-05-18T10:26:35.808Z,47808
2018-05-18T10:27:45.541Z,46368
2018-05-18T10:28:55.262Z,46112
2018-05-18T10:30:05.267Z,45984
2018-05-18T10:31:15.006Z,47456
2018-05-18T10:32:25.018Z,48736
2018-05-18T10:33:34.737Z,46464
2018-05-18T10:34:44.726Z,49120
2018-05-18T10:35:54.756Z,47392
2018-05-18T10:37:04.751Z,48128
2018-05-18T10:38:14.736Z,44352
2018-05-18T10:39:24.738Z,44096
2018-05-18T10:40:34.720Z,45344
2018-05-18T10:41:44.457Z,46368
2018-05-18T10:42:54.500Z,47616
2018-05-18T10:44:04.222Z,49760
2018-05-18T10:45:14.281Z,51136
2018-05-18T10:46:24.337Z,49888
2018-05-18T10:47:34.325Z,51136
2018-05-18T10:48:44.317Z,53760
2018-05-18T10:49:53.555Z,59424
2018-05-18T10:51:03.564Z,58912
2018-05-18T10:52:13.315Z,92512
2018-05-18T10:53:23.068Z,115840
2018-05-18T10:54:33.065Z,76544
2018-05-18T10:55:42.790Z,78944
2018-05-18T10:56:53.009Z,81344
2018-05-18T10:58:03.092Z,120320
2018-05-18T10:59:13.143Z,129504
2018-05-18T11:00:22.885Z,60576
2018-05-18T11:01:32.880Z,107200
2018-05-18T11:02:42.947Z,48768
2018-05-18T11:03:52.685Z,43296
2018-05-18T11:05:02.437Z,39744
2018-05-18T11:06:12.442Z,39904
2018-05-18T11:07:22.433Z,42304
2018-05-18T11:08:31.903Z,43328
2018-05-18T11:09:41.892Z,44960
2018-05-18T11:10:51.879Z,48832
2018-05-18T11:12:01.969Z,47392
2018-05-18T11:13:11.954Z,50336
2018-05-18T11:14:22.032Z,61568
2018-05-18T11:15:31.774Z,52768
2018-05-18T11:16:41.518Z,49760
2018-05-18T11:17:51.583Z,42240
2018-05-18T11:19:01.592Z,40352
2018-05-18T11:20:11.937Z,41088
2018-05-18T11:21:21.950Z,41632
2018-05-18T11:22:31.676Z,39456
2018-05-18T11:23:41.660Z,37856
2018-05-18T11:24:51.405Z,38624
2018-05-18T11:26:01.147Z,41408
2018-05-18T11:27:11.140Z,46048
2018-05-18T11:28:21.159Z,53088
2018-05-18T11:29:31.197Z,52960
2018-05-18T11:30:41.208Z,55776
2018-05-18T11:31:51.252Z,62752
2018-05-18T11:33:01.326Z,61632
2018-05-18T11:34:11.202Z,48416
2018-05-18T11:35:21.063Z,44224
2018-05-18T11:36:30.813Z,46976
2018-05-18T11:37:40.548Z,55200
2018-05-18T11:38:50.553Z,47072
2018-05-18T11:40:00.561Z,45088
2018-05-18T11:41:10.293Z,43936
2018-05-18T11:42:20.284Z,43968
2018-05-18T11:43:30.627Z,47936
2018-05-18T11:44:40.625Z,75456
2018-05-18T11:45:50.634Z,44512
2018-05-18T11:47:00.638Z,40448
2018-05-18T11:48:10.920Z,40064
2018-05-18T11:49:20.222Z,38912
2018-05-18T11:50:30.233Z,37216
2018-05-18T11:51:40.223Z,37504
2018-05-18T11:52:49.962Z,41440
2018-05-18T11:53:59.985Z,42912
2018-05-18T11:55:09.733Z,45600
2018-05-18T11:56:19.801Z,40064
2018-05-18T11:57:29.535Z,39296
2018-05-18T11:58:39.531Z,38720
2018-05-18T11:59:49.530Z,39168
2018-05-18T12:00:59.563Z,40992
2018-05-18T12:02:09.544Z,44608
2018-05-18T12:03:19.268Z,57056
2018-05-18T12:04:28.994Z,45376
2018-05-18T12:05:39.009Z,41632
2018-05-18T12:06:48.987Z,39744
2018-05-18T12:07:58.726Z,40896
2018-05-18T12:09:08.731Z,37952
2018-05-18T12:10:18.719Z,34432
2018-05-18T12:11:28.752Z,33376
2018-05-18T12:12:38.492Z,32256
2018-05-18T12:13:48.241Z,31008
2018-05-18T12:14:58.232Z,31168
2018-05-18T12:16:08.205Z,32608
2018-05-18T12:17:17.935Z,33920
2018-05-18T12:18:27.457Z,35296
2018-05-18T12:19:37.445Z,36608
2018-05-18T12:20:47.184Z,36832
2018-05-18T12:21:57.188Z,35200
2018-05-18T12:23:07.189Z,33472
2018-05-18T12:24:17.257Z,32992
2018-05-18T12:25:27.232Z,33504
2018-05-18T12:26:37.220Z,35040
2018-05-18T12:27:47.226Z,34304
2018-05-18T12:28:57.252Z,34976
2018-05-18T12:30:06.967Z,35456
2018-05-18T12:31:16.694Z,33760
2018-05-18T12:32:26.678Z,31936
2018-05-18T12:33:36.647Z,31616
2018-05-18T12:34:46.640Z,29984
2018-05-18T12:35:56.667Z,27392
2018-05-18T12:37:06.656Z,27200
2018-05-18T12:38:16.352Z,28128
2018-05-18T12:39:26.567Z,28288
2018-05-18T12:40:36.553Z,28672
2018-05-18T12:41:46.553Z,29728
2018-05-18T12:42:56.534Z,30304
2018-05-18T12:44:06.274Z,30240
2018-05-18T12:45:16.267Z,30272
2018-05-18T12:46:26.256Z,30752
2018-05-18T12:47:36.008Z,31712
2018-05-18T12:48:45.812Z,33056
2018-05-18T12:49:55.783Z,31360
2018-05-18T12:51:05.779Z,30656
2018-05-18T12:52:15.784Z,30272
2018-05-18T12:53:25.494Z,29952
2018-05-18T12:54:35.487Z,29280
2018-05-18T12:55:45.207Z,28384
2018-05-18T12:56:55.190Z,27520
2018-05-18T12:58:04.911Z,27136
2018-05-18T12:59:14.892Z,26304
2018-05-18T13:00:24.615Z,25408
2018-05-18T13:01:34.334Z,25440
2018-05-18T13:02:43.806Z,25792
2018-05-18T13:03:53.527Z,25120
2018-05-18T13:05:03.517Z,23968
2018-05-18T13:06:13.334Z,23360
2018-05-18T13:07:23.065Z,23072
2018-05-18T13:08:33.038Z,22816
2018-05-18T13:09:43.025Z,22944
2018-05-18T13:10:52.745Z,23552
2018-05-18T13:12:02.753Z,23584
2018-05-18T13:13:12.472Z,22688
2018-05-18T13:14:22.209Z,21856
2018-05-18T13:15:32.186Z,21632
2018-05-18T13:16:42.162Z,21632
2018-05-18T13:17:51.909Z,21696
2018-05-18T13:19:01.885Z,21632
2018-05-18T13:20:11.876Z,21376
2018-05-18T13:21:21.606Z,21088
2018-05-18T13:22:31.596Z,21216
2018-05-18T13:23:41.580Z,21824
2018-05-18T13:24:51.575Z,22688
2018-05-18T13:26:01.556Z,23584
2018-05-18T13:27:11.538Z,24576
2018-05-18T13:28:20.746Z,25312
2018-05-18T13:29:30.734Z,25824
2018-05-18T13:30:41.399Z,26208
2018-05-18T13:31:51.140Z,25888
2018-05-18T13:33:01.125Z,25536
2018-05-18T13:34:11.113Z,25760
2018-05-18T13:35:21.101Z,26144
2018-05-18T13:36:31.088Z,26240
2018-05-18T13:37:40.824Z,26624
2018-05-18T13:38:51.055Z,27520
2018-05-18T13:40:01.326Z,27776
2018-05-18T13:41:11.047Z,28096
2018-05-18T13:42:21.138Z,28768
2018-05-18T13:43:31.204Z,28640
2018-05-18T13:44:41.224Z,29792
2018-05-18T13:45:50.958Z,32288
2018-05-18T13:47:00.955Z,32384
2018-05-18T13:48:10.944Z,30880
2018-05-18T13:49:20.417Z,29024
2018-05-18T13:50:30.425Z,27360
2018-05-18T13:51:40.437Z,26464
2018-05-18T13:52:50.243Z,26048
2018-05-18T13:53:59.706Z,25472
2018-05-18T13:55:09.704Z,24992
2018-05-18T13:56:19.684Z,25440
2018-05-18T13:57:29.684Z,26464
2018-05-18T13:58:39.671Z,27328
2018-05-18T13:59:49.665Z,27392
2018-05-18T14:00:59.658Z,26752
2018-05-18T14:02:09.666Z,26336
2018-05-18T14:03:19.386Z,25184
2018-05-18T14:04:28.838Z,23552
2018-05-18T14:05:38.555Z,22816
2018-05-18T14:06:48.278Z,23424
2018-05-18T14:07:58.259Z,24608
2018-05-18T14:09:07.984Z,25344
2018-05-18T14:10:17.991Z,25568
2018-05-18T14:11:27.978Z,25568
2018-05-18T14:12:37.959Z,25280
2018-05-18T14:13:47.929Z,24128
2018-05-18T14:14:57.915Z,22784
2018-05-18T14:16:07.915Z,22336
2018-05-18T14:17:17.646Z,22368
2018-05-18T14:18:27.367Z,22336
2018-05-18T14:19:37.355Z,21696
2018-05-18T14:20:47.355Z,21248
2018-05-18T14:21:57.351Z,21344
2018-05-18T14:23:07.327Z,21568
2018-05-18T14:24:17.372Z,21248
2018-05-18T14:25:27.200Z,20896
2018-05-18T14:26:37.354Z,21024
2018-05-18T14:27:47.371Z,21344
2018-05-18T14:28:57.092Z,21216
2018-05-18T14:30:07.105Z,20768
2018-05-18T14:31:16.565Z,20192
2018-05-18T14:32:26.547Z,19840
2018-05-18T14:33:36.531Z,19488
2018-05-18T14:34:46.517Z,19104
2018-05-18T14:35:56.238Z,18784
2018-05-18T14:37:06.211Z,18368
2018-05-18T14:38:16.293Z,18176
2018-05-18T14:39:26.314Z,18080
2018-05-18T14:40:36.294Z,18016
2018-05-18T14:41:46.289Z,17664
2018-05-18T14:42:56.015Z,17020
2018-05-18T14:44:06.042Z,16736
2018-05-18T14:45:15.777Z,16468
2018-05-18T14:46:25.777Z,16188
2018-05-18T14:47:35.750Z,16036
2018-05-18T14:48:45.470Z,16060
2018-05-18T14:49:55.461Z,16028
2018-05-18T14:51:05.086Z,15876
2018-05-18T14:52:15.100Z,15536
2018-05-18T14:53:25.088Z,15564
2018-05-18T14:54:34.825Z,15728
2018-05-18T14:55:44.806Z,15916
2018-05-18T14:56:54.788Z,15924
2018-05-18T14:58:04.502Z,15660
2018-05-18T14:59:14.477Z,14956
2018-05-18T15:00:24.445Z,14460
2018-05-18T15:01:34.445Z,14352
2018-05-18T15:02:44.423Z,14332
2018-05-18T15:03:54.404Z,14236
2018-05-18T15:05:04.396Z,13888
2018-05-18T15:06:14.130Z,13568
2018-05-18T15:07:24.123Z,13436
2018-05-18T15:08:34.108Z,13236
2018-05-18T15:09:44.091Z,12852
2018-05-18T15:10:54.151Z,12464
2018-05-18T15:12:04.189Z,12276
2018-05-18T15:13:14.201Z,12032
2018-05-18T15:14:23.908Z,11624
2018-05-18T15:15:33.366Z,11208
2018-05-18T15:16:43.331Z,10916
2018-05-18T15:17:53.156Z,10728
2018-05-18T15:19:03.235Z,10548
2018-05-18T15:20:13.212Z,10444
2018-05-18T15:21:23.208Z,10240
2018-05-18T15:22:32.683Z,10004
2018-05-18T15:23:42.402Z,9824
2018-05-18T15:24:52.677Z,9704
2018-05-18T15:26:02.733Z,9664
2018-05-18T15:27:12.727Z,9668
2018-05-18T15:28:22.719Z,9648